Time;durP1;ratioP1;P1;durP2;ratioP2;P2;SDS_P1;SDS_P2;PMS_P1;PMS_P2;Temp;Humidity;BMP_temperature;BMP_pressure;BME280_temperature;BME280_humidity;BME280_pressure;Samples;Min_cycle;Max_cycle;Signal;HPM_P1;HPM_P2
2023/07/11 00:01:30;;;;;;;1.90;0.47;;;21.70;66.00;;;;;;4947876;28;20053;-89
2023/07/11 00:03:57;;;;;;;1.13;0.40;;;21.60;66.20;;;;;;4920462;28;20086;-89
2023/07/11 00:06:27;;;;;;;2.42;0.40;;;21.50;66.40;;;;;;4968155;28;20462;-88
2023/07/11 00:08:54;;;;;;;0.63;0.30;;;21.50;66.60;;;;;;4969604;28;20053;-88
2023/07/11 00:11:21;;;;;;;1.42;0.35;;;21.50;66.80;;;;;;4969195;28;20055;-88
2023/07/11 00:13:53;;;;;;;1.13;0.30;;;21.40;67.00;;;;;;4947622;28;20156;-88
2023/07/11 00:16:21;;;;;;;1.15;0.30;;;21.40;67.10;;;;;;4963043;28;20073;-88
2023/07/11 00:18:51;;;;;;;1.13;0.40;;;21.30;67.20;;;;;;4966565;28;20130;-84
2023/07/11 00:21:18;;;;;;;0.60;0.30;;;21.30;67.30;;;;;;4958397;28;20402;-84
2023/07/11 00:23:45;;;;;;;1.58;0.57;;;21.30;67.40;;;;;;4958646;28;20047;-84
2023/07/11 00:26:12;;;;;;;1.20;0.40;;;21.20;67.50;;;;;;4945449;29;20047;-83
2023/07/11 00:28:39;;;;;;;1.30;0.30;;;21.20;67.60;;;;;;4961810;28;20491;-84
2023/07/11 00:31:11;;;;;;;1.60;0.45;;;21.20;67.80;;;;;;4961036;28;20078;-83
2023/07/11 00:33:39;;;;;;;0.98;0.30;;;21.20;67.90;;;;;;4972756;28;20046;-84
2023/07/11 00:36:09;;;;;;;0.35;0.20;;;21.10;68.00;;;;;;4968321;28;20141;-84
2023/07/11 00:38:37;;;;;;;2.00;0.30;;;21.10;68.10;;;;;;4952360;28;20042;-84
2023/07/11 00:41:07;;;;;;;0.80;0.30;;;21.10;68.20;;;;;;4945172;28;20145;-83
2023/07/11 00:43:34;;;;;;;1.20;0.50;;;21.10;68.20;;;;;;4945708;29;20053;-84
2023/07/11 00:46:09;;;;;;;1.02;0.47;;;21.10;68.30;;;;;;4953598;29;20043;-83
2023/07/11 00:48:47;;;;;;;1.33;0.30;;;21.00;68.40;;;;;;4968103;28;20394;-84
2023/07/11 00:51:22;;;;;;;1.40;0.30;;;21.00;68.50;;;;;;4954889;28;20047;-83
2023/07/11 00:53:51;;;;;;;2.20;0.52;;;21.00;68.50;;;;;;4945656;29;20377;-84
2023/07/11 00:56:26;;;;;;;1.25;0.30;;;20.90;68.60;;;;;;4936382;29;20052;-84
2023/07/11 00:58:56;;;;;;;1.48;0.40;;;20.90;68.70;;;;;;4955099;29;20051;-84
2023/07/11 01:01:24;;;;;;;3.10;0.45;;;20.90;68.90;;;;;;4952165;29;20047;-83
2023/07/11 01:03:52;;;;;;;0.85;0.38;;;20.80;68.90;;;;;;4979294;28;20126;-83
2023/07/11 01:06:24;;;;;;;1.65;0.40;;;20.80;69.00;;;;;;4956754;28;20050;-88
2023/07/11 01:08:56;;;;;;;1.02;0.45;;;20.80;69.10;;;;;;4975080;28;20046;-89
2023/07/11 01:11:26;;;;;;;1.65;0.38;;;20.80;69.20;;;;;;4965963;28;20101;-89
2023/07/11 01:13:56;;;;;;;1.60;0.40;;;20.70;69.30;;;;;;4954662;28;20042;-89
2023/07/11 01:16:24;;;;;;;1.95;0.40;;;20.70;69.40;;;;;;4946166;28;20043;-88
2023/07/11 01:18:52;;;;;;;1.73;0.50;;;20.70;69.60;;;;;;4965660;28;20528;-88
2023/07/11 01:21:21;;;;;;;0.82;0.50;;;20.70;69.60;;;;;;4943121;28;20050;-88
2023/07/11 01:23:49;;;;;;;0.70;0.30;;;20.70;69.70;;;;;;4950702;28;20072;-88
2023/07/11 01:26:18;;;;;;;1.63;0.50;;;20.70;69.80;;;;;;4963536;28;20051;-88
2023/07/11 01:28:46;;;;;;;2.05;0.40;;;20.60;69.90;;;;;;4950134;28;20047;-88
2023/07/11 01:31:16;;;;;;;0.93;0.40;;;20.60;70.00;;;;;;4949222;28;20047;-84
2023/07/11 01:33:43;;;;;;;2.53;0.40;;;20.60;70.20;;;;;;4949913;28;20482;-84
2023/07/11 01:36:11;;;;;;;1.88;0.60;;;20.50;70.20;;;;;;4965060;28;20104;-84
2023/07/11 01:38:40;;;;;;;2.63;0.52;;;20.50;70.30;;;;;;4954072;28;20047;-84
2023/07/11 01:41:08;;;;;;;1.45;0.50;;;20.50;70.40;;;;;;4941476;29;20055;-84
2023/07/11 01:43:38;;;;;;;1.65;0.57;;;20.50;70.50;;;;;;4938092;29;20059;-84
2023/07/11 01:46:06;;;;;;;1.13;0.45;;;20.50;70.60;;;;;;4966333;28;20568;-84
2023/07/11 01:48:34;;;;;;;1.00;0.50;;;20.50;70.60;;;;;;4964798;28;20054;-88
2023/07/11 01:51:06;;;;;;;1.65;0.50;;;20.50;70.80;;;;;;4949457;28;20130;-84
2023/07/11 01:53:33;;;;;;;1.65;0.40;;;20.50;70.90;;;;;;4974673;28;20484;-86
2023/07/11 01:56:03;;;;;;;1.65;0.30;;;20.40;70.90;;;;;;4913051;28;20047;-86
2023/07/11 01:58:42;;;;;;;1.98;0.40;;;20.40;71.00;;;;;;4969301;28;20073;-86
2023/07/11 02:01:12;;;;;;;0.95;0.40;;;20.30;71.10;;;;;;4971876;28;20058;-86
2023/07/11 02:03:42;;;;;;;0.80;0.40;;;20.30;71.30;;;;;;4967730;28;20093;-86
2023/07/11 02:06:12;;;;;;;1.42;0.40;;;20.30;71.40;;;;;;4962009;28;20042;-86
2023/07/11 02:08:40;;;;;;;1.52;0.32;;;20.20;71.40;;;;;;4951844;28;20137;-86
2023/07/11 02:11:07;;;;;;;1.85;0.65;;;20.20;71.50;;;;;;4963992;28;20141;-85
2023/07/11 02:13:36;;;;;;;1.08;0.45;;;20.10;71.70;;;;;;4967466;28;20053;-86
2023/07/11 02:16:09;;;;;;;1.30;0.40;;;20.10;71.80;;;;;;4940953;28;20081;-85
2023/07/11 02:18:40;;;;;;;1.27;0.30;;;20.00;71.80;;;;;;4972121;28;20051;-86
2023/07/11 02:21:09;;;;;;;2.53;0.50;;;20.00;71.90;;;;;;4976254;28;20129;-86
2023/07/11 02:23:37;;;;;;;1.48;0.50;;;20.00;72.10;;;;;;4954167;28;20096;-86
2023/07/11 02:26:15;;;;;;;1.25;0.40;;;20.00;72.30;;;;;;4971743;28;20522;-86
2023/07/11 02:28:42;;;;;;;1.77;0.50;;;19.90;72.30;;;;;;4964010;28;20085;-86
2023/07/11 02:31:09;;;;;;;1.10;0.47;;;19.90;72.50;;;;;;4946418;28;20137;-85
2023/07/11 02:33:38;;;;;;;1.92;0.50;;;19.80;72.60;;;;;;4955556;28;20046;-85
2023/07/11 02:36:08;;;;;;;1.80;0.40;;;19.80;72.70;;;;;;4948286;28;20046;-86
2023/07/11 02:38:35;;;;;;;1.38;0.35;;;19.80;72.80;;;;;;4942354;28;20057;-84
2023/07/11 02:41:05;;;;;;;4.07;0.52;;;19.70;72.90;;;;;;4920741;29;20110;-85
2023/07/11 02:43:33;;;;;;;1.23;0.40;;;19.70;73.00;;;;;;4957712;28;20053;-85
2023/07/11 02:46:03;;;;;;;0.95;0.40;;;19.70;73.10;;;;;;4941502;28;20039;-86
2023/07/11 02:48:33;;;;;;;3.15;0.50;;;19.70;73.20;;;;;;4946503;29;20047;-86
2023/07/11 02:51:01;;;;;;;2.25;0.68;;;19.70;73.40;;;;;;4964484;28;20067;-86
2023/07/11 02:53:28;;;;;;;1.77;0.52;;;19.70;73.40;;;;;;4953723;28;20507;-86
2023/07/11 02:55:56;;;;;;;1.35;0.50;;;19.60;73.50;;;;;;4939791;28;20050;-86
2023/07/11 02:58:26;;;;;;;4.43;0.60;;;19.60;73.60;;;;;;4941000;28;20134;-85
2023/07/11 03:00:56;;;;;;;2.40;0.55;;;19.60;74.40;;;;;;4945275;28;20042;-85
2023/07/11 03:03:26;;;;;;;1.17;0.50;;;19.50;73.90;;;;;;4968514;28;20051;-85
2023/07/11 03:05:55;;;;;;;1.27;0.50;;;19.50;74.00;;;;;;4956771;28;20047;-86
2023/07/11 03:08:26;;;;;;;1.20;0.30;;;19.50;74.10;;;;;;4944519;28;20063;-86
2023/07/11 03:10:58;;;;;;;1.35;0.40;;;19.40;74.10;;;;;;4971699;28;20491;-86
2023/07/11 03:13:28;;;;;;;0.85;0.40;;;19.40;74.30;;;;;;4960686;28;20043;-90
2023/07/11 03:16:03;;;;;;;0.95;0.40;;;19.40;74.40;;;;;;4944656;28;20051;-90
2023/07/11 03:18:32;;;;;;;1.77;0.43;;;19.30;74.40;;;;;;4932878;28;20054;-89
2023/07/11 03:21:00;;;;;;;1.48;0.50;;;19.30;74.50;;;;;;4948609;28;20114;-89
2023/07/11 03:23:30;;;;;;;1.23;0.50;;;19.30;74.60;;;;;;4945440;28;20137;-90
2023/07/11 03:26:00;;;;;;;1.17;0.50;;;19.30;74.60;;;;;;4961230;28;20070;-89
2023/07/11 03:28:27;;;;;;;1.88;0.40;;;19.30;74.70;;;;;;4911911;28;20060;-89
2023/07/11 03:30:58;;;;;;;1.35;0.50;;;19.30;74.80;;;;;;4952727;28;20050;-89
2023/07/11 03:33:26;;;;;;;1.25;0.35;;;19.30;74.80;;;;;;4955179;28;20062;-89
2023/07/11 03:35:53;;;;;;;1.58;0.60;;;19.30;74.80;;;;;;4978183;28;20074;-89
2023/07/11 03:38:20;;;;;;;1.30;0.50;;;19.30;74.80;;;;;;4942469;28;20388;-89
2023/07/11 03:40:48;;;;;;;1.27;0.63;;;19.30;74.80;;;;;;4975178;28;20058;-90
2023/07/11 03:43:15;;;;;;;2.55;0.60;;;19.30;74.90;;;;;;4976822;28;20055;-89
2023/07/11 03:45:46;;;;;;;1.10;0.40;;;19.30;74.90;;;;;;4947839;28;20054;-86
2023/07/11 03:48:19;;;;;;;1.38;0.40;;;19.30;75.00;;;;;;4944850;28;20096;-86
2023/07/11 03:50:48;;;;;;;1.38;0.50;;;19.30;75.10;;;;;;4980007;28;20047;-86
2023/07/11 03:53:15;;;;;;;1.15;0.40;;;19.30;75.10;;;;;;4950091;28;20102;-86
2023/07/11 03:55:43;;;;;;;0.77;0.30;;;19.20;75.10;;;;;;4946719;28;20051;-86
2023/07/11 03:58:13;;;;;;;1.65;0.47;;;19.20;75.20;;;;;;4943687;28;20070;-86
2023/07/11 04:00:40;;;;;;;0.85;0.43;;;19.20;75.30;;;;;;4966608;28;20149;-86
2023/07/11 04:03:08;;;;;;;3.40;0.52;;;19.20;75.30;;;;;;4946498;28;20483;-86
2023/07/11 04:05:36;;;;;;;0.95;0.40;;;19.20;75.30;;;;;;4962621;28;20070;-87
2023/07/11 04:08:04;;;;;;;0.93;0.40;;;19.20;75.30;;;;;;4977598;28;20051;-86
2023/07/11 04:10:32;;;;;;;1.70;0.52;;;19.20;75.30;;;;;;4978359;28;20039;-86
2023/07/11 04:13:01;;;;;;;2.28;0.50;;;19.20;75.30;;;;;;4987356;28;20070;-86
2023/07/11 04:15:28;;;;;;;1.55;0.45;;;19.30;75.40;;;;;;4967585;28;20202;-87
2023/07/11 04:17:58;;;;;;;1.60;0.40;;;19.20;75.30;;;;;;4981753;28;20117;-86
2023/07/11 04:20:26;;;;;;;2.53;0.60;;;19.30;75.40;;;;;;4966999;28;20101;-91
2023/07/11 04:22:53;;;;;;;1.13;0.40;;;19.30;75.40;;;;;;4976648;28;20042;-89
2023/07/11 04:25:20;;;;;;;1.75;0.50;;;19.30;75.30;;;;;;4959796;28;20141;-90
2023/07/11 04:27:48;;;;;;;1.25;0.40;;;19.30;75.10;;;;;;4968451;28;20408;-90
2023/07/11 04:30:15;;;;;;;1.15;0.40;;;19.40;75.00;;;;;;4946697;28;20061;-90
2023/07/11 04:32:42;;;;;;;2.42;0.80;;;19.40;74.90;;;;;;4950076;29;20055;-91
2023/07/11 04:35:14;;;;;;;2.30;0.60;;;19.40;74.80;;;;;;4970684;28;20094;-90
2023/07/11 04:37:41;;;;;;;1.70;0.45;;;19.50;74.80;;;;;;4952444;28;20047;-91
2023/07/11 04:40:13;;;;;;;1.70;0.40;;;19.50;75.30;;;;;;4962266;28;20054;-86
2023/07/11 04:42:41;;;;;;;2.65;0.50;;;19.60;74.60;;;;;;4959903;28;20047;-85
2023/07/11 04:45:10;;;;;;;1.35;0.55;;;19.60;74.50;;;;;;4964470;28;20046;-86
2023/07/11 04:47:40;;;;;;;1.77;0.40;;;19.60;74.40;;;;;;4961350;28;20042;-86
2023/07/11 04:50:07;;;;;;;1.40;0.50;;;19.70;74.30;;;;;;4964149;28;20302;-86
2023/07/11 04:52:35;;;;;;;1.95;0.50;;;19.70;74.20;;;;;;4944188;28;20058;-86
2023/07/11 04:55:02;;;;;;;1.50;0.40;;;19.70;74.10;;;;;;4918901;29;20081;-86
2023/07/11 04:57:29;;;;;;;1.05;0.40;;;19.80;74.10;;;;;;4960584;28;20137;-85
2023/07/11 04:59:56;;;;;;;0.88;0.40;;;19.80;74.00;;;;;;4943338;28;20054;-86
2023/07/11 05:02:24;;;;;;;1.75;0.60;;;19.80;73.90;;;;;;4938616;28;20047;-86
2023/07/11 05:04:52;;;;;;;3.00;0.63;;;19.90;73.80;;;;;;4947858;28;20398;-86
2023/07/11 05:07:22;;;;;;;1.80;0.40;;;19.90;73.60;;;;;;4942682;28;20079;-87
2023/07/11 05:09:52;;;;;;;2.72;0.70;;;20.00;73.60;;;;;;4965212;28;20047;-87
2023/07/11 05:12:26;;;;;;;1.33;0.50;;;20.00;73.40;;;;;;4958280;28;20051;-87
2023/07/11 05:14:56;;;;;;;1.90;0.55;;;20.10;73.30;;;;;;4972457;28;20045;-85
2023/07/11 05:17:24;;;;;;;1.95;0.60;;;20.20;73.10;;;;;;4942903;28;20488;-87
2023/07/11 05:19:53;;;;;;;1.20;0.50;;;20.20;73.00;;;;;;4966420;28;20047;-86
2023/07/11 05:22:20;;;;;;;1.45;0.63;;;20.30;72.90;;;;;;4947590;28;20114;-86
2023/07/11 05:24:48;;;;;;;3.58;0.70;;;20.40;72.80;;;;;;4959472;28;20549;-86
2023/07/11 05:27:15;;;;;;;1.20;0.40;;;20.40;72.60;;;;;;4964507;28;20047;-87
2023/07/11 05:29:46;;;;;;;2.28;0.40;;;20.50;72.50;;;;;;4957584;28;20097;-87
2023/07/11 05:32:15;;;;;;;1.20;0.55;;;20.60;72.40;;;;;;4942027;28;20047;-87
2023/07/11 05:34:43;;;;;;;2.05;0.65;;;20.60;72.20;;;;;;4958222;28;20038;-86
2023/07/11 05:37:10;;;;;;;2.30;0.90;;;20.70;72.10;;;;;;4954468;28;20046;-86
2023/07/11 05:39:37;;;;;;;1.85;0.50;;;20.80;72.00;;;;;;4959615;28;20038;-89
2023/07/11 05:42:05;;;;;;;2.60;0.50;;;20.90;71.80;;;;;;4974234;28;20046;-89
2023/07/11 05:44:35;;;;;;;2.80;0.70;;;21.00;71.60;;;;;;4946688;28;20128;-89
2023/07/11 05:47:11;;;;;;;2.00;0.52;;;21.10;71.30;;;;;;4964844;28;20042;-89
2023/07/11 05:49:43;;;;;;;1.92;0.50;;;21.20;71.10;;;;;;4928538;29;20051;-89
2023/07/11 05:52:11;;;;;;;1.10;0.50;;;21.30;70.90;;;;;;4974867;28;20046;-88
2023/07/11 05:54:38;;;;;;;1.00;0.30;;;21.40;70.70;;;;;;4965253;28;20133;-89
2023/07/11 05:57:09;;;;;;;1.35;0.50;;;21.50;70.50;;;;;;4916990;29;20460;-89
2023/07/11 05:59:43;;;;;;;1.23;0.40;;;21.60;70.30;;;;;;4924504;29;20138;-89
2023/07/11 06:02:14;;;;;;;1.10;0.50;;;21.70;70.10;;;;;;4943085;28;20057;-89
2023/07/11 06:04:59;;;;;;;0.70;0.30;;;21.80;70.00;;;;;;4968851;28;20043;-89
2023/07/11 06:07:30;;;;;;;1.83;0.40;;;22.00;69.90;;;;;;4969846;28;20059;-89
2023/07/11 06:10:00;;;;;;;0.65;0.30;;;22.00;69.60;;;;;;4952047;28;20401;-89
2023/07/11 06:12:27;;;;;;;1.13;0.40;;;22.10;69.40;;;;;;4947846;28;20047;-89
2023/07/11 06:14:54;;;;;;;2.38;0.47;;;22.30;69.30;;;;;;4944678;29;20051;-89
2023/07/11 06:17:22;;;;;;;2.08;0.40;;;22.40;69.20;;;;;;4970492;28;20067;-89
2023/07/11 06:19:56;;;;;;;1.88;0.40;;;22.50;69.00;;;;;;4941691;29;20051;-89
2023/07/11 06:22:37;;;;;;;1.75;0.40;;;22.60;68.80;;;;;;4928713;29;20142;-87
2023/07/11 06:25:05;;;;;;;1.33;0.50;;;22.70;68.50;;;;;;4953199;28;20384;-86
2023/07/11 06:27:34;;;;;;;1.85;0.40;;;22.80;68.30;;;;;;4938470;29;20063;-87
2023/07/11 06:30:11;;;;;;;4.13;0.65;;;22.80;68.10;;;;;;4950286;28;20039;-87
2023/07/11 06:32:44;;;;;;;1.20;0.38;;;22.90;68.00;;;;;;4962007;28;20531;-86
2023/07/11 06:35:16;;;;;;;1.10;0.40;;;23.00;67.80;;;;;;4947459;28;20042;-86
2023/07/11 06:37:47;;;;;;;1.05;0.47;;;23.10;67.60;;;;;;4947832;28;20051;-86
2023/07/11 06:40:18;;;;;;;1.20;0.40;;;23.20;67.40;;;;;;4956193;28;20039;-86
2023/07/11 06:42:57;;;;;;;1.35;0.30;;;23.30;67.30;;;;;;4964410;28;20048;-87
2023/07/11 06:45:25;;;;;;;2.92;0.40;;;23.40;67.10;;;;;;4942475;29;20098;-86
2023/07/11 06:48:00;;;;;;;1.95;0.38;;;23.50;66.90;;;;;;4960772;28;20100;-87
2023/07/11 06:50:35;;;;;;;2.92;0.40;;;23.60;66.80;;;;;;4942924;29;20075;-87
2023/07/11 06:53:11;;;;;;;1.50;0.50;;;23.70;66.60;;;;;;4958394;29;20078;-89
2023/07/11 06:55:49;;;;;;;1.95;0.75;;;23.80;66.30;;;;;;4958101;29;20484;-89
2023/07/11 06:58:18;;;;;;;2.15;0.57;;;23.90;65.30;;;;;;4938753;29;20063;-89
2023/07/11 07:00:53;;;;;;;1.98;0.60;;;24.00;65.20;;;;;;4944627;29;20047;-89
2023/07/11 07:03:21;;;;;;;2.10;0.40;;;24.10;64.90;;;;;;4930507;29;20044;-89
2023/07/11 07:05:53;;;;;;;1.50;0.60;;;24.10;64.80;;;;;;4964073;28;20081;-88
2023/07/11 07:08:24;;;;;;;1.45;0.63;;;24.30;64.80;;;;;;4980574;28;20178;-89
2023/07/11 07:11:40;;;;;;;2.22;0.60;;;24.40;64.50;;;;;;4958589;28;20047;-88
2023/07/11 07:14:18;;;;;;;1.67;0.57;;;24.50;64.00;;;;;;4953433;28;20070;-89
2023/07/11 07:17:09;;;;;;;1.42;0.47;;;24.60;63.90;;;;;;4951002;28;20127;-89
2023/07/11 07:19:41;;;;;;;2.05;0.50;;;24.60;63.70;;;;;;4958188;28;20055;-89
2023/07/11 07:22:10;;;;;;;3.08;0.70;;;24.70;63.40;;;;;;4943616;29;20044;-92
2023/07/11 07:24:37;;;;;;;1.70;0.73;;;24.90;63.00;;;;;;4953113;29;20070;-89
2023/07/11 07:27:08;;;;;;;1.10;0.50;;;24.90;62.90;;;;;;4984771;28;20044;-90
2023/07/11 07:29:53;;;;;;;2.38;0.60;;;25.00;62.80;;;;;;4957512;29;20143;-89
2023/07/11 07:32:21;;;;;;;1.95;0.70;;;25.00;62.50;;;;;;4956922;28;20071;-83
2023/07/11 07:34:48;;;;;;;2.05;0.70;;;25.10;62.50;;;;;;4940387;28;20448;-83
2023/07/11 07:37:15;;;;;;;2.05;0.60;;;25.20;62.20;;;;;;4921589;29;20048;-87
2023/07/11 07:39:42;;;;;;;2.60;0.63;;;25.30;62.20;;;;;;4938268;29;20075;-88
2023/07/11 07:42:10;;;;;;;1.95;0.50;;;25.40;62.10;;;;;;4949612;28;20062;-87
2023/07/11 07:44:37;;;;;;;1.83;0.70;;;25.50;62.10;;;;;;4940887;29;20043;-86
2023/07/11 07:47:04;;;;;;;2.70;0.93;;;25.60;61.70;;;;;;4956208;29;20065;-84
2023/07/11 07:49:31;;;;;;;2.05;0.88;;;25.60;61.40;;;;;;4924650;28;20063;-83
2023/07/11 07:52:15;;;;;;;1.95;0.70;;;25.70;61.30;;;;;;4955715;28;20131;-84
2023/07/11 07:54:42;;;;;;;1.58;0.90;;;25.80;61.40;;;;;;4939507;29;20546;-84
2023/07/11 07:57:09;;;;;;;2.42;0.70;;;25.80;61.10;;;;;;4919929;29;20043;-84
2023/07/11 07:59:36;;;;;;;1.98;0.90;;;26.00;61.00;;;;;;4951321;29;20051;-84
2023/07/11 08:02:03;;;;;;;2.03;0.68;;;26.00;60.50;;;;;;4963348;28;20062;-86
2023/07/11 08:04:31;;;;;;;2.10;0.80;;;26.10;60.40;;;;;;4911104;29;20043;-84
2023/07/11 08:06:58;;;;;;;2.75;0.90;;;26.20;60.20;;;;;;4944486;28;20135;-84
2023/07/11 08:09:25;;;;;;;1.27;0.68;;;26.20;60.00;;;;;;4943026;28;20062;-84
2023/07/11 08:11:52;;;;;;;1.63;0.60;;;26.40;60.00;;;;;;4940273;29;20047;-84
2023/07/11 08:14:19;;;;;;;1.98;0.70;;;26.40;59.50;;;;;;4975669;28;20093;-84
2023/07/11 08:16:46;;;;;;;2.35;0.90;;;26.60;59.40;;;;;;4943142;28;20426;-83
2023/07/11 08:19:14;;;;;;;2.13;0.60;;;26.70;59.00;;;;;;4927424;28;20058;-85
2023/07/11 08:21:41;;;;;;;1.70;0.60;;;26.80;58.50;;;;;;4931859;28;20511;-82
2023/07/11 08:24:12;;;;;;;2.15;0.85;;;27.00;58.40;;;;;;4916925;29;20051;-89
2023/07/11 08:26:40;;;;;;;2.42;0.68;;;27.00;57.30;;;;;;4941212;29;20059;-91
2023/07/11 08:29:07;;;;;;;2.35;0.88;;;27.10;57.30;;;;;;4956018;29;20043;-83
2023/07/11 08:31:50;;;;;;;1.73;0.75;;;27.20;57.00;;;;;;4930446;28;20105;-87
2023/07/11 08:34:18;;;;;;;2.88;0.73;;;27.30;56.90;;;;;;4964315;28;20533;-86
2023/07/11 08:36:46;;;;;;;2.15;0.80;;;27.40;56.80;;;;;;4972035;28;20049;-85
2023/07/11 08:39:13;;;;;;;1.88;0.60;;;27.50;56.40;;;;;;4958532;28;20046;-83
2023/07/11 08:41:45;;;;;;;1.55;0.70;;;27.60;56.20;;;;;;4932495;29;20120;-85
2023/07/11 08:44:42;;;;;;;2.10;0.60;;;27.70;55.90;;;;;;4987048;28;20479;-86
2023/07/11 08:47:30;;;;;;;1.48;0.60;;;27.80;55.50;;;;;;4953508;28;20051;-87
2023/07/11 08:50:13;;;;;;;1.27;0.50;;;28.00;55.40;;;;;;4940127;28;20043;-86
2023/07/11 08:52:43;;;;;;;1.58;0.70;;;28.00;55.30;;;;;;4959350;28;20050;-83
2023/07/11 08:55:12;;;;;;;2.53;0.70;;;28.00;55.00;;;;;;4943697;28;20051;-83
2023/07/11 08:57:47;;;;;;;;;;;28.10;54.90;;;;;;4959688;28;20165;-86
2023/07/11 09:00:18;;;;;;;2.40;0.75;;;28.10;54.90;;;;;;4966823;28;20362;-84
2023/07/11 09:02:55;;;;;;;2.50;0.63;;;28.20;53.90;;;;;;4948975;28;20055;-84
2023/07/11 09:05:51;;;;;;;1.63;0.60;;;28.20;53.10;;;;;;4949859;28;20101;-87
2023/07/11 09:08:20;;;;;;;1.45;0.63;;;28.30;53.20;;;;;;4983926;28;20057;-86
2023/07/11 09:10:56;;;;;;;1.58;0.80;;;28.30;51.90;;;;;;4960345;28;20085;-85
2023/07/11 09:14:04;;;;;;;2.08;0.70;;;28.30;52.30;;;;;;4948954;28;20625;-86
2023/07/11 09:16:35;;;;;;;1.27;0.50;;;28.30;52.40;;;;;;4954962;28;20043;-87
2023/07/11 09:19:26;;;;;;;2.72;0.80;;;28.40;52.40;;;;;;4964597;28;20047;-87
2023/07/11 09:22:26;;;;;;;1.67;0.60;;;28.60;51.80;;;;;;4940862;28;20062;-88
2023/07/11 09:25:05;;;;;;;1.50;0.40;;;28.70;51.70;;;;;;4960490;28;20046;-88
2023/07/11 09:27:37;;;;;;;2.78;0.50;;;28.80;51.70;;;;;;4978300;28;20061;-83
2023/07/11 09:30:30;;;;;;;2.88;0.60;;;28.90;51.60;;;;;;4954252;28;20075;-85
2023/07/11 09:33:12;;;;;;;1.85;0.47;;;28.90;51.70;;;;;;4958379;28;20058;-85
2023/07/11 09:35:41;;;;;;;1.75;0.40;;;28.80;51.60;;;;;;4961454;28;20495;-84
2023/07/11 09:38:31;;;;;;;0.80;0.50;;;28.60;52.00;;;;;;4962241;28;20057;-85
2023/07/11 09:41:29;;;;;;;2.63;0.60;;;28.50;52.40;;;;;;4968608;28;20042;-85
2023/07/11 09:44:15;;;;;;;1.50;0.57;;;28.30;51.90;;;;;;4946259;28;20121;-84
2023/07/11 09:46:42;;;;;;;2.20;0.60;;;28.30;52.00;;;;;;4951046;28;20145;-85
2023/07/11 09:49:21;;;;;;;2.00;0.70;;;28.60;51.60;;;;;;4926791;28;20143;-84
2023/07/11 09:51:53;;;;;;;23.75;2.55;;;28.80;50.80;;;;;;4976937;28;20056;-87
2023/07/11 09:54:51;;;;;;;1.58;0.50;;;28.90;50.60;;;;;;4971505;28;20113;-87
2023/07/11 09:57:43;;;;;;;3.08;0.40;;;28.80;50.90;;;;;;4980245;28;20057;-83
2023/07/11 10:00:20;;;;;;;2.60;0.50;;;28.80;51.10;;;;;;4950264;28;20074;-86
2023/07/11 10:02:51;;;;;;;2.25;0.65;;;28.80;50.30;;;;;;4971479;28;20047;-84
2023/07/11 10:05:22;;;;;;;2.45;0.70;;;28.60;50.10;;;;;;4954769;28;20105;-89
2023/07/11 10:08:12;;;;;;;2.08;0.70;;;28.60;50.00;;;;;;4983673;28;20051;-86
2023/07/11 10:10:54;;;;;;;2.72;0.55;;;28.70;49.80;;;;;;4967860;28;20074;-81
2023/07/11 10:13:22;;;;;;;1.15;0.50;;;28.80;49.80;;;;;;4945745;28;20117;-84
2023/07/11 10:16:04;;;;;;;3.33;0.90;;;28.80;49.80;;;;;;4951625;28;20055;-82
2023/07/11 10:18:35;;;;;;;1.80;0.68;;;28.80;49.60;;;;;;4969781;28;20491;-83
2023/07/11 10:21:17;;;;;;;2.10;0.60;;;28.80;49.80;;;;;;4968840;28;20042;-83
2023/07/11 10:23:52;;;;;;;2.70;0.70;;;28.90;49.90;;;;;;4965176;28;20121;-82
2023/07/11 10:26:26;;;;;;;3.13;0.75;;;28.90;49.40;;;;;;4951409;28;20052;-81
2023/07/11 10:29:07;;;;;;;1.42;0.70;;;29.00;49.40;;;;;;4968261;28;20042;-81
2023/07/11 10:31:49;;;;;;;1.85;0.80;;;29.20;49.50;;;;;;4962697;28;20087;-82
2023/07/11 10:34:32;;;;;;;1.92;0.57;;;29.40;49.30;;;;;;4964950;28;20114;-86
2023/07/11 10:37:08;;;;;;;2.08;0.90;;;29.60;48.80;;;;;;4970800;28;20043;-84
2023/07/11 10:39:44;;;;;;;1.60;0.70;;;29.70;48.50;;;;;;4960666;28;20423;-82
2023/07/11 10:42:17;;;;;;;1.77;0.75;;;29.80;48.40;;;;;;4960751;28;20047;-82
2023/07/11 10:44:48;;;;;;;2.08;0.60;;;29.90;48.60;;;;;;4951220;28;20125;-83
2023/07/11 10:47:35;;;;;;;2.13;0.60;;;29.90;48.60;;;;;;4974189;28;20065;-90
2023/07/11 10:50:37;;;;;;;3.25;0.40;;;29.90;48.50;;;;;;4938632;28;20053;-87
2023/07/11 10:53:28;;;;;;;1.83;0.60;;;30.00;48.30;;;;;;4973162;28;20129;-80
2023/07/11 10:56:28;;;;;;;1.95;0.70;;;30.20;48.30;;;;;;4960468;28;20415;-83
2023/07/11 10:58:57;;;;;;;1.83;0.50;;;30.20;48.20;;;;;;4944215;28;20046;-84
2023/07/11 11:01:55;;;;;;;1.65;0.50;;;30.20;48.50;;;;;;4958827;28;20102;-82
2023/07/11 11:04:49;;;;;;;2.05;0.60;;;30.30;48.60;;;;;;4953098;28;20042;-83
2023/07/11 11:07:17;;;;;;;2.35;0.52;;;30.20;48.10;;;;;;4955921;28;20061;-83
2023/07/11 11:09:47;;;;;;;3.88;0.90;;;30.00;48.10;;;;;;4968598;28;20039;-84
2023/07/11 11:12:37;;;;;;;4.75;1.20;;;29.90;47.30;;;;;;4959025;28;20038;-85
2023/07/11 11:15:30;;;;;;;2.03;0.77;;;29.70;47.30;;;;;;4962574;28;20150;-84
2023/07/11 11:18:00;;;;;;;2.25;0.88;;;29.70;47.50;;;;;;4935921;28;20062;-88
2023/07/11 11:20:51;;;;;;;1.35;0.80;;;29.90;47.50;;;;;;4942079;28;20050;-82
2023/07/11 11:23:47;;;;;;;2.42;1.13;;;30.00;47.00;;;;;;4969619;28;20059;-83
2023/07/11 11:26:36;;;;;;;1.05;0.60;;;30.20;47.00;;;;;;4934990;28;20102;-82
2023/07/11 11:29:19;;;;;;;3.53;0.90;;;30.30;46.50;;;;;;4961731;28;20405;-82
2023/07/11 11:32:09;;;;;;;3.42;1.02;;;30.40;46.40;;;;;;4969997;28;20082;-82
2023/07/11 11:34:55;;;;;;;2.60;1.20;;;30.50;46.50;;;;;;4973238;28;20050;-82
2023/07/11 11:38:04;;;;;;;4.82;0.90;;;30.50;46.40;;;;;;4952714;28;20055;-80
2023/07/11 11:40:51;;;;;;;2.63;0.88;;;30.60;46.20;;;;;;4959984;28;20059;-86
2023/07/11 11:43:49;;;;;;;;;;;;;;;;;;;;;
2023/07/11 11:46:35;;;;;;;2.65;0.75;;;30.50;46.30;;;;;;4968768;28;20047;-85
2023/07/11 11:49:07;;;;;;;1.92;0.93;;;30.50;46.50;;;;;;4959432;28;20066;-84
2023/07/11 11:52:08;;;;;;;2.72;0.90;;;30.40;46.40;;;;;;4939039;28;20047;-86
2023/07/11 11:54:46;;;;;;;1.83;0.80;;;30.30;46.30;;;;;;4953340;28;20076;-86
2023/07/11 11:57:33;;;;;;;2.13;0.80;;;30.40;46.40;;;;;;4946903;28;20039;-84
2023/07/11 12:00:01;;;;;;;2.72;0.82;;;30.50;46.20;;;;;;4924940;29;20138;-89
2023/07/11 12:02:39;;;;;;;2.88;0.82;;;30.50;46.00;;;;;;4963013;28;20057;-82
2023/07/11 12:05:18;;;;;;;1.70;0.68;;;30.50;45.80;;;;;;4959557;28;20046;-82
2023/07/11 12:08:06;;;;;;;2.80;0.70;;;30.60;46.20;;;;;;4958108;28;20068;-85
2023/07/11 12:10:34;;;;;;;2.65;0.52;;;30.70;46.40;;;;;;4945087;29;20106;-81
2023/07/11 12:13:17;;;;;;;2.47;0.80;;;30.90;46.50;;;;;;4955837;28;20047;-81
2023/07/11 12:15:48;;;;;;;1.98;0.88;;;31.00;46.30;;;;;;4947417;29;20051;-82
2023/07/11 12:18:25;;;;;;;1.38;0.40;;;31.00;46.40;;;;;;4955432;29;20046;-85
2023/07/11 12:21:14;;;;;;;1.17;0.50;;;31.10;46.50;;;;;;4944086;29;20133;-84
2023/07/11 12:24:55;;;;;;;1.38;0.70;;;31.20;46.40;;;;;;4986110;28;20061;-86
2023/07/11 12:27:23;;;;;;;1.20;0.65;;;31.10;46.20;;;;;;4929396;28;20078;-85
2023/07/11 12:29:53;;;;;;;1.52;0.63;;;31.10;46.20;;;;;;4939672;29;20069;-86
2023/07/11 12:32:31;;;;;;;1.63;0.57;;;31.60;46.20;;;;;;4947715;28;20085;-87
2023/07/11 12:35:04;;;;;;;1.17;0.50;;;32.00;45.90;;;;;;4966793;28;20514;-87
2023/07/11 12:38:02;;;;;;;2.75;0.60;;;32.10;45.80;;;;;;4940382;29;20408;-87
2023/07/11 12:40:57;;;;;;;2.17;0.65;;;32.20;45.40;;;;;;4959474;28;20050;-82
2023/07/11 12:43:33;;;;;;;1.65;0.60;;;31.80;45.10;;;;;;4946574;28;20050;-83
2023/07/11 12:46:06;;;;;;;2.63;0.73;;;31.70;45.50;;;;;;4965224;28;20035;-81
2023/07/11 12:48:38;;;;;;;3.10;0.68;;;31.60;45.60;;;;;;4964166;28;20047;-88
2023/07/11 12:51:23;;;;;;;2.53;0.65;;;31.80;45.80;;;;;;4955609;29;20126;-83
2023/07/11 12:54:00;;;;;;;1.45;0.40;;;32.60;45.20;;;;;;4954657;29;20047;-83
2023/07/11 12:56:30;;;;;;;1.38;0.60;;;33.40;44.60;;;;;;4943274;29;20098;-89
2023/07/11 12:59:00;;;;;;;1.45;0.50;;;34.00;43.90;;;;;;4965435;28;20060;-90
2023/07/11 13:01:32;;;;;;;2.35;0.75;;;34.40;43.20;;;;;;4944993;28;20047;-88
2023/07/11 13:03:59;;;;;;;1.45;0.50;;;34.90;43.20;;;;;;4946181;29;20487;-87
2023/07/11 13:06:30;;;;;;;2.85;0.90;;;35.40;43.00;;;;;;4944072;29;20090;-86
2023/07/11 13:08:58;;;;;;;2.28;0.70;;;35.60;41.90;;;;;;4952646;28;20054;-85
2023/07/11 13:11:36;;;;;;;2.53;0.77;;;35.60;41.90;;;;;;4966008;28;20094;-90
2023/07/11 13:14:09;;;;;;;2.78;1.00;;;35.60;41.40;;;;;;4950074;28;20054;-84
2023/07/11 13:16:39;;;;;;;2.38;0.80;;;35.00;41.70;;;;;;4939683;29;20043;-87
2023/07/11 13:19:14;;;;;;;3.05;1.10;;;34.70;42.30;;;;;;4954700;29;20051;-84
2023/07/11 13:21:43;;;;;;;2.05;0.60;;;34.90;41.50;;;;;;4925441;29;20047;-85